• Join FlightAware (Why Join?)
  • Login
  • US Flag 
10:55PM EDT


 

Airport Tracker/Info


-or-


 

Live Flight TrackerFlight Track Log ✈ SWA499 ✈ 25-Apr-2013 ✈ KDEN - KMCI

Flight Track Log - Related Links

Times and Time Zones

All times are in EDT time to prevent confusion due to time zone crossing. See the SWA499 flight status page for this flight to view local times or setup timezone preferences in your user account.

Time Position Orientation Groundspeed Altitude Reporting Facility
EDT Latitude Longitude Course Direction KTS MPH feet Rate Location/Type
12:44PM 39.9167 -104.6667 72° East 192 221 7,100  Level Denver TRACON
12:45PM 39.9500 -104.6000 57° Northeast 243 280 9,100 1,440 Climbing Denver TRACON
12:46PM 39.9500 -104.5167 90° East 293 337 9,900 1,380 Climbing Denver TRACON
12:47PM 39.9500 -104.4000 90° East 333 383 11,800 1,440 Climbing Denver TRACON
12:48PM 39.9408 -104.3367 101° East 341 392 12,000 240 Climbing Denver Center
12:49PM 39.9144 -104.2153 106° East 349 402 12,200 1,440 Climbing Denver Center
12:50PM 39.8722 -103.7779 72° East  Level FlightAware Approximate
12:50PM 39.8936 -104.0744 101° East 371 427 15,000  Level Denver Center
12:51PM 39.8742 -103.9319 100° East 400 460 18,100 2,760 Climbing Denver Center
12:52PM 39.8814 -103.8033 86° East 422 486 20,700 2,460 Climbing Denver Center
12:53PM 39.8950 -103.6233 84° East 420 483 23,800 2,520 Climbing Denver Center
12:54PM 39.9100 -103.4292 84° East 456 525 26,500 2,220 Climbing Denver Center
12:55PM 39.9253 -103.2269 84° East 475 547 28,500 1,740 Climbing Denver Center
12:56PM 39.9386 -103.0447 84° East 498 573 30,100 1,560 Climbing Denver Center
12:57PM 39.9508 -102.8556 85° East 517 595 31,800 1,860 Climbing Denver Center
12:58PM 39.9614 -102.6486 86° East 527 606 34,000 1,740 Climbing Denver Center
12:59PM 39.9717 -102.4997 85° East 520 598 35,400 1,500 Climbing Denver Center
01:00PM 39.9875 -102.2619 85° East 518 596 37,400 1,500 Climbing Denver Center
01:02PM 39.9989 -102.0547 86° East 515 593 38,900 720 Climbing Denver Center
01:03PM 40.0111 -101.8478 86° East 514 592 39,000  Climbing Denver Center
01:04PM 40.0211 -101.6700 86° East 514 592 39,000  Level Denver Center
01:05PM 40.0336 -101.4639 85° East 512 589 39,000  Level Denver Center
01:06PM 40.0422 -101.2875 86° East 510 587 39,000  Level Denver Center
01:07PM 40.0536 -101.0819 86° East 511 588 39,000  Level Denver Center
01:08PM 40.0625 -100.9058 86° East 511 588 39,000  Level Denver Center
01:09PM 40.0725 -100.7000 86° East 512 589 39,000  Level Denver Center
01:11PM 40.0897 -100.3169 87° East 514 592 39,000  Level Denver Center
01:12PM 40.0978 -100.1397 87° East 514 592 39,000  Level Denver Center
01:13PM 40.1061 -99.9311 87° East 516 594 39,000  Level Denver Center
01:14PM 40.1133 -99.7511 87° East 519 597 39,000  Level Denver Center
01:15PM 40.1214 -99.5411 87° East 520 598 39,000  Level Denver Center
01:16PM 40.1286 -99.3600 87° East 522 601 39,000  Level Denver Center
01:17PM 40.1356 -99.1489 87° East 522 601 39,000  Level Denver Center
01:18PM 40.1414 -98.9678 88° East 521 600 39,000  Level Denver Center
01:19PM 40.1469 -98.7908 88° East 522 601 39,000  Level Minneapolis Center
01:20PM 40.1533 -98.6017 87° East 523 602 39,000  Level Minneapolis Center
01:21PM 40.1583 -98.4117 88° East 523 602 39,000  Level Minneapolis Center
01:22PM 40.1647 -98.1861 88° East 522 601 39,000  Level Minneapolis Center
01:23PM 40.1703 -97.9989 88° East 520 598 39,000  Level Minneapolis Center
01:24PM 40.1744 -97.8111 88° East 519 597 39,000  Level Minneapolis Center
01:25PM 40.1789 -97.6258 88° East 516 594 39,000 -180 Level Minneapolis Center
01:26PM 40.1825 -97.4386 88° East 515 593 38,700 -1,500 Descending Minneapolis Center
01:27PM 40.1867 -97.2164 89° East 514 592 35,900 -2,580 Descending Minneapolis Center
01:28PM 40.1889 -97.0311 89° East 513 590 33,400 -2,460 Descending Minneapolis Center
01:29PM 40.1917 -96.8458 89° East 512 589 30,900 -2,340 Descending Minneapolis Center
01:30PM 40.1928 -96.6622 89° East 509 586 28,600 -2,220 Descending Minneapolis Center
01:31PM 40.1961 -96.4892 88° East 488 562 26,400 -2,100 Descending Minneapolis Center
01:32PM 40.1978 -96.3211 89° East 472 543 24,300 -1,800 Descending Minneapolis Center
01:34PM 40.1711 -96.1389 101° East 441 507 22,700 -1,860 Descending Minneapolis Center
01:35PM 40.1139 -96.0117 120° Southeast 413 475 20,500 -1,920 Descending Minneapolis Center
01:36PM 40.0586 -95.8836 119° Southeast 408 470 18,800 -1,500 Descending Minneapolis Center
01:37PM 40.0042 -95.7628 120° Southeast 395 455 17,400 -1,620 Descending Minneapolis Center
01:38PM 39.9519 -95.6458 120° Southeast 381 438 15,500 -1,860 Descending Minneapolis Center
01:39PM 39.8997 -95.5308 121° Southeast 373 429 13,600 -1,740 Descending Minneapolis Center
01:40PM 39.8447 -95.4147 122° Southeast 367 422 12,200 -1,320 Descending Kansas City Center
01:41PM 39.7778 -95.3383 139° Southeast 334 384 11,200 -1,020 Descending Kansas City Center
01:42PM 39.7264 -95.2444 125° Southeast 331 381 10,200 -960 Descending Kansas City Center
01:43PM 39.6697 -95.1414 126° Southeast 313 360 9,300 -1,140 Descending Kansas City Center
01:44PM 39.6228 -95.0539 125° Southeast 308 354 7,900 -1,440 Descending Kansas City Center
01:45PM 39.5681 -94.9553 126° Southeast 299 344 6,400 -960 Descending Kansas City Center
01:46PM 39.5247 -94.8769 126° Southeast 282 325 6,000 -900 Descending Kansas City Center
01:47PM 39.4808 -94.7967 125° Southeast 244 281 4,600 -1,080 Descending Kansas City Center
01:48PM 39.4458 -94.7344 126° Southeast 224 258 3,800 -1,020 Descending Kansas City Center
01:49PM 39.3978 -94.6989 150° Southeast 181 208 2,600 -960 Descending Kansas City Center
01:50PM 39.3589 -94.7097 192° South 148 170 1,800 -720 Descending Kansas City Center
01:51PM 39.3247 -94.7203 193° South 133 153 1,200 -600 Descending Kansas City Center